Urb Victor Braeger, Puerto Rico
Current Conditions -  °F | °C
As of 9:56 PM on Monday 22 Dec 2014 (Local Time) from TJSJ Reporting Station
Scattered Clouds Scattered Clouds  
Wind Chill: 78°   Ceiling: Unl
Heat Index: 81°   Visibility: 10mi
Dew Point: 74°   Wind: 5mph
Humidity: 87%   Direction: 110°ESE
Pressure: 30.03"   Gusts: NA
Location:  18.3882°N, 66.1144°W
Report Text: TJSJ 230156Z 11004KT 10SM SCT025 SCT070 26/23 A3003 RMK AO2 RAB38E48 SLP169 VCSH W P0000 T02560233
Loading
Personal Weather Stations






























Interactive Weather Map New forecast layout! Learn more

10-Day Weather Forecast

Advertisements
Track Severe Weather on mobile